Time;durP1;ratioP1;P1;durP2;ratioP2;P2;SDS_P1;SDS_P2;PMS_P1;PMS_P2;Temp;Humidity;BMP_temperature;BMP_pressure;BME280_temperature;BME280_humidity;BME280_pressure;Samples;Min_cycle;Max_cycle;Signal;HPM_P1;HPM_P2
2023/12/24 00:00:47;;;;;;;13.25;4.15;;;8.80;99.90;;;;;;5045953;28;20029;-81
2023/12/24 00:03:12;;;;;;;13.20;3.45;;;8.90;99.90;;;;;;5059575;28;20455;-81
2023/12/24 00:05:38;;;;;;;14.38;4.32;;;8.80;99.90;;;;;;5062151;28;20069;-82
2023/12/24 00:08:04;;;;;;;11.77;3.70;;;8.80;99.90;;;;;;5061808;28;20115;-82
2023/12/24 00:10:29;;;;;;;12.45;3.63;;;8.90;99.90;;;;;;5035537;28;20124;-81
2023/12/24 00:12:55;;;;;;;14.25;2.80;;;8.90;99.90;;;;;;5059663;28;20115;-81
2023/12/24 00:15:21;;;;;;;15.48;4.30;;;8.90;99.90;;;;;;5043215;28;20064;-82
2023/12/24 00:17:46;;;;;;;15.38;3.42;;;9.00;99.90;;;;;;5060180;28;20052;-82
2023/12/24 00:20:12;;;;;;;18.13;4.22;;;8.90;99.90;;;;;;5060779;28;20386;-82
2023/12/24 00:22:38;;;;;;;15.48;3.78;;;8.90;99.90;;;;;;5056477;28;20111;-81
2023/12/24 00:25:04;;;;;;;11.15;3.25;;;8.90;99.90;;;;;;5059284;28;20110;-81
2023/12/24 00:27:30;;;;;;;14.82;3.63;;;8.90;99.90;;;;;;5059600;28;20040;-81
2023/12/24 00:29:55;;;;;;;16.33;3.80;;;8.90;99.90;;;;;;5060293;28;20476;-81
2023/12/24 00:32:21;;;;;;;12.00;3.00;;;9.10;99.90;;;;;;5059582;28;20041;-81
2023/12/24 00:34:46;;;;;;;12.80;3.20;;;8.90;99.90;;;;;;5058878;28;20545;-81
2023/12/24 00:37:12;;;;;;;9.95;3.72;;;8.90;99.90;;;;;;5054370;28;20064;-81
2023/12/24 00:39:38;;;;;;;16.33;3.35;;;9.20;99.90;;;;;;5087247;28;20044;-82
2023/12/24 00:42:03;;;;;;;15.93;3.53;;;8.90;99.90;;;;;;5057941;28;20170;-81
2023/12/24 00:44:29;;;;;;;19.80;4.43;;;8.90;99.90;;;;;;5059202;28;20048;-81
2023/12/24 00:46:55;;;;;;;13.48;3.40;;;8.90;99.90;;;;;;5061323;28;20115;-81
2023/12/24 00:49:21;;;;;;;11.38;3.22;;;8.90;99.90;;;;;;5062206;28;20123;-81
2023/12/24 00:51:47;;;;;;;12.98;3.10;;;8.90;99.90;;;;;;5061439;28;20100;-81
2023/12/24 00:54:13;;;;;;;12.75;3.55;;;9.50;99.90;;;;;;5060745;28;20029;-81
2023/12/24 00:56:38;;;;;;;13.55;3.30;;;8.90;99.90;;;;;;5061348;28;20050;-81
2023/12/24 00:59:04;;;;;;;11.57;2.90;;;9.00;99.90;;;;;;5058662;28;20032;-81
2023/12/24 01:01:29;;;;;;;17.73;3.53;;;8.90;99.90;;;;;;5060540;28;20542;-82
2023/12/24 01:03:55;;;;;;;17.55;4.72;;;8.90;99.90;;;;;;5059936;28;20511;-81
2023/12/24 01:06:21;;;;;;;11.00;3.20;;;9.10;99.90;;;;;;5061179;28;20086;-81
2023/12/24 01:08:46;;;;;;;14.35;3.35;;;8.90;99.90;;;;;;5062415;28;20044;-81
2023/12/24 01:11:12;;;;;;;18.85;3.60;;;8.90;99.90;;;;;;5093762;28;20051;-81
2023/12/24 01:13:38;;;;;;;13.30;3.25;;;9.00;99.90;;;;;;5060957;28;20476;-82
2023/12/24 01:16:04;;;;;;;11.65;3.50;;;8.90;99.90;;;;;;5057978;28;20119;-82
2023/12/24 01:18:30;;;;;;;14.70;3.20;;;8.90;99.90;;;;;;5056825;28;20119;-81
2023/12/24 01:20:56;;;;;;;15.07;3.50;;;9.00;99.90;;;;;;5060342;28;20032;-81
2023/12/24 01:23:22;;;;;;;13.05;3.08;;;8.80;99.90;;;;;;5057117;28;20041;-82
2023/12/24 01:25:48;;;;;;;12.10;3.05;;;9.10;99.90;;;;;;5059885;28;20504;-81
2023/12/24 01:28:14;;;;;;;16.20;3.80;;;8.80;99.90;;;;;;5060241;28;20041;-82
2023/12/24 01:30:40;;;;;;;14.55;3.78;;;9.10;99.90;;;;;;5090227;28;20129;-81
2023/12/24 01:33:06;;;;;;;10.27;3.00;;;8.90;99.90;;;;;;5060723;28;20032;-82
2023/12/24 01:35:32;;;;;;;15.45;3.45;;;8.90;99.90;;;;;;5059417;28;20440;-82
2023/12/24 01:37:57;;;;;;;12.38;3.05;;;8.80;99.90;;;;;;5042638;28;20386;-81
2023/12/24 01:40:23;;;;;;;9.30;3.00;;;8.90;99.90;;;;;;5051286;28;20169;-82
2023/12/24 01:42:49;;;;;;;13.07;3.55;;;8.90;99.90;;;;;;5061715;28;20504;-81
2023/12/24 01:45:14;;;;;;;8.07;2.50;;;9.00;99.90;;;;;;5059125;28;20045;-81
2023/12/24 01:47:41;;;;;;;8.82;2.58;;;8.90;99.90;;;;;;5043679;28;20033;-82
2023/12/24 01:50:07;;;;;;;11.98;3.22;;;8.80;99.90;;;;;;5058225;28;20041;-82
2023/12/24 01:52:33;;;;;;;8.18;2.67;;;8.90;99.90;;;;;;5056914;28;20037;-81
2023/12/24 01:54:59;;;;;;;7.05;2.33;;;9.10;99.90;;;;;;5041155;28;20039;-82
2023/12/24 01:57:25;;;;;;;7.18;2.50;;;8.90;99.90;;;;;;5059945;28;20037;-81
2023/12/24 01:59:52;;;;;;;8.98;2.22;;;8.90;99.90;;;;;;5054239;28;20044;-82
2023/12/24 02:02:18;;;;;;;7.22;2.53;;;8.90;99.90;;;;;;5058278;28;20057;-82
2023/12/24 02:04:44;;;;;;;9.07;2.75;;;8.90;99.90;;;;;;5060439;28;20037;-82
2023/12/24 02:07:11;;;;;;;6.25;2.22;;;8.80;99.90;;;;;;5059097;28;20075;-81
2023/12/24 02:09:37;;;;;;;7.90;2.22;;;8.80;99.90;;;;;;5059945;28;20419;-81
2023/12/24 02:12:03;;;;;;;10.25;2.72;;;8.90;99.90;;;;;;5058910;28;20056;-82
2023/12/24 02:14:29;;;;;;;9.65;2.63;;;8.80;99.90;;;;;;5056665;28;20411;-82
2023/12/24 02:16:58;;;;;;;10.63;3.00;;;9.00;99.90;;;;;;5061326;28;20033;-82
2023/12/24 02:19:24;;;;;;;9.98;3.10;;;9.00;99.90;;;;;;5060973;28;20044;-81
2023/12/24 02:21:50;;;;;;;12.68;3.28;;;8.90;99.90;;;;;;5055430;28;20041;-81
2023/12/24 02:24:16;;;;;;;11.18;3.35;;;8.90;99.90;;;;;;5060608;28;20035;-82
2023/12/24 02:26:50;;;;;;;15.20;4.05;;;9.10;99.90;;;;;;5060350;28;20033;-81
2023/12/24 02:29:48;;;;;;;13.68;3.42;;;8.90;99.90;;;;;;5060455;28;20094;-82
2023/12/24 02:32:15;;;;;;;12.23;3.72;;;8.90;99.90;;;;;;5052705;28;20041;-82
2023/12/24 02:34:44;;;;;;;14.50;3.22;;;8.90;99.90;;;;;;5056825;28;20043;-82
2023/12/24 02:37:11;;;;;;;9.57;3.22;;;9.10;99.90;;;;;;5060224;28;20033;-82
2023/12/24 02:39:41;;;;;;;15.30;3.17;;;8.90;99.90;;;;;;5042013;28;20057;-81
2023/12/24 02:42:08;;;;;;;13.20;3.33;;;9.10;99.90;;;;;;5060348;28;20029;-81
2023/12/24 02:44:35;;;;;;;12.10;3.08;;;8.90;99.90;;;;;;5058765;28;20075;-82
2023/12/24 02:47:00;;;;;;;12.38;3.55;;;9.30;99.90;;;;;;5058226;28;20106;-82
2023/12/24 02:49:26;;;;;;;14.05;5.15;;;9.00;99.90;;;;;;5058335;28;20041;-81
2023/12/24 02:51:52;;;;;;;12.85;3.25;;;9.00;99.90;;;;;;5057595;28;20167;-81
2023/12/24 02:54:17;;;;;;;11.27;3.40;;;9.20;99.90;;;;;;5057671;28;20449;-82
2023/12/24 02:56:43;;;;;;;13.73;3.47;;;9.10;99.90;;;;;;5042075;28;20112;-81
2023/12/24 02:59:08;;;;;;;12.15;3.55;;;9.00;99.90;;;;;;5058820;28;20033;-82
2023/12/24 03:01:34;;;;;;;12.45;3.20;;;9.00;99.90;;;;;;5058859;28;20502;-81
2023/12/24 03:03:59;;;;;;;8.35;2.67;;;9.00;99.90;;;;;;5057242;28;20075;-81
2023/12/24 03:06:25;;;;;;;7.97;2.72;;;9.00;99.90;;;;;;5058772;28;20128;-82
2023/12/24 03:08:51;;;;;;;10.70;3.17;;;9.00;99.90;;;;;;5041855;28;20064;-81
2023/12/24 03:11:16;;;;;;;6.55;2.90;;;9.00;99.90;;;;;;5058677;28;20397;-81
2023/12/24 03:13:42;;;;;;;11.10;2.97;;;9.00;99.90;;;;;;5059435;28;20041;-81
2023/12/24 03:16:07;;;;;;;8.13;2.35;;;9.00;99.90;;;;;;5060665;28;20043;-82
2023/12/24 03:18:33;;;;;;;11.35;2.53;;;9.00;99.90;;;;;;5058306;28;20071;-82
2023/12/24 03:21:00;;;;;;;10.68;2.63;;;9.20;99.90;;;;;;5060208;28;20068;-82
2023/12/24 03:23:26;;;;;;;10.18;2.42;;;9.00;99.90;;;;;;5058905;28;20041;-82
2023/12/24 03:25:52;;;;;;;7.63;2.50;;;9.10;99.90;;;;;;5060563;28;20059;-82
2023/12/24 03:28:18;;;;;;;10.88;3.22;;;9.10;99.90;;;;;;5059043;28;20052;-82
2023/12/24 03:30:44;;;;;;;9.60;2.50;;;9.10;99.90;;;;;;5059679;28;20029;-81
2023/12/24 03:33:09;;;;;;;7.82;2.35;;;9.20;99.90;;;;;;5058784;28;20044;-81
2023/12/24 03:35:35;;;;;;;8.10;2.53;;;9.10;99.90;;;;;;5059026;28;20029;-81
2023/12/24 03:38:01;;;;;;;7.95;2.42;;;9.10;99.90;;;;;;5043344;28;20048;-82
2023/12/24 03:40:26;;;;;;;6.45;2.53;;;9.20;99.90;;;;;;5059598;28;20056;-82
2023/12/24 03:42:52;;;;;;;7.90;2.38;;;9.10;99.90;;;;;;5060875;28;20037;-81
2023/12/24 03:45:17;;;;;;;6.80;2.15;;;9.10;99.90;;;;;;5059214;28;20041;-82
2023/12/24 03:47:43;;;;;;;5.70;2.00;;;9.30;99.90;;;;;;5058660;28;20052;-81
2023/12/24 03:50:09;;;;;;;6.47;1.92;;;9.20;99.90;;;;;;5060558;28;20075;-81
2023/12/24 03:52:35;;;;;;;3.75;1.67;;;9.10;99.90;;;;;;5059785;28;20041;-81
2023/12/24 03:55:01;;;;;;;7.57;1.92;;;9.10;99.90;;;;;;5063749;28;20124;-81
2023/12/24 03:57:26;;;;;;;6.72;1.80;;;9.10;99.90;;;;;;5063376;28;20068;-82
2023/12/24 03:59:52;;;;;;;5.82;2.42;;;9.20;99.90;;;;;;5061579;28;20500;-81
2023/12/24 04:02:18;;;;;;;5.68;2.00;;;9.30;99.90;;;;;;5061687;28;20041;-82
2023/12/24 04:04:48;;;;;;;5.63;2.10;;;9.20;99.90;;;;;;5057811;28;20040;-81
2023/12/24 04:07:17;;;;;;;5.38;2.00;;;9.10;99.90;;;;;;5063535;28;20064;-81
2023/12/24 04:09:42;;;;;;;4.35;1.98;;;9.20;99.90;;;;;;5062727;28;20115;-81
2023/12/24 04:12:09;;;;;;;6.28;2.15;;;9.20;99.90;;;;;;5063034;28;20077;-82
2023/12/24 04:14:38;;;;;;;8.60;2.20;;;9.20;99.90;;;;;;5064741;28;20040;-82
2023/12/24 04:17:05;;;;;;;3.65;1.83;;;9.20;99.90;;;;;;5061555;28;20534;-81
2023/12/24 04:19:30;;;;;;;3.53;1.55;;;9.10;99.90;;;;;;5061288;28;20043;-81
2023/12/24 04:21:56;;;;;;;4.80;1.80;;;9.20;99.90;;;;;;5062917;28;20029;-81
2023/12/24 04:24:22;;;;;;;3.90;1.60;;;9.20;99.90;;;;;;5063957;28;20064;-81
2023/12/24 04:26:47;;;;;;;3.70;1.70;;;9.20;99.90;;;;;;5063934;28;20047;-81
2023/12/24 04:29:13;;;;;;;5.70;1.40;;;9.20;99.90;;;;;;5059027;28;20512;-81
2023/12/24 04:31:39;;;;;;;2.35;1.10;;;9.20;99.90;;;;;;5064542;28;20124;-82
2023/12/24 04:34:09;;;;;;;2.67;1.30;;;9.30;99.90;;;;;;5063452;28;20045;-82
2023/12/24 04:36:34;;;;;;;3.20;1.30;;;9.20;99.90;;;;;;5063401;28;20124;-82
2023/12/24 04:39:01;;;;;;;3.78;1.20;;;9.30;99.90;;;;;;5060757;28;20072;-82
2023/12/24 04:41:28;;;;;;;4.85;1.20;;;9.30;99.90;;;;;;5061669;28;20065;-82
2023/12/24 04:43:57;;;;;;;2.72;1.25;;;9.30;99.90;;;;;;5063688;28;20075;-81
2023/12/24 04:46:22;;;;;;;3.03;1.45;;;9.30;99.90;;;;;;5061511;28;20063;-82
2023/12/24 04:48:48;;;;;;;4.85;1.55;;;9.40;99.90;;;;;;5060001;28;20043;-82
2023/12/24 04:51:14;;;;;;;4.30;1.60;;;9.40;99.90;;;;;;5064370;28;20033;-82
2023/12/24 04:53:40;;;;;;;2.40;1.45;;;9.40;99.90;;;;;;5062154;28;20047;-81
2023/12/24 04:56:06;;;;;;;3.85;1.52;;;9.50;99.90;;;;;;5061575;28;20097;-82
2023/12/24 04:58:31;;;;;;;5.07;1.88;;;9.50;99.90;;;;;;5062367;28;20104;-82
2023/12/24 05:00:57;;;;;;;3.97;1.60;;;9.40;99.90;;;;;;5060591;28;20044;-82
2023/12/24 05:03:23;;;;;;;4.07;1.40;;;9.40;99.90;;;;;;5060240;28;20049;-81
2023/12/24 05:05:49;;;;;;;5.53;1.80;;;9.50;99.90;;;;;;5060203;28;20516;-81
2023/12/24 05:08:14;;;;;;;4.47;1.50;;;9.50;99.90;;;;;;5063237;28;20044;-82
2023/12/24 05:10:40;;;;;;;3.05;1.52;;;9.50;99.90;;;;;;5062725;28;20041;-82
2023/12/24 05:13:06;;;;;;;5.22;2.10;;;9.50;99.90;;;;;;5062447;28;20033;-82
2023/12/24 05:15:31;;;;;;;3.97;1.85;;;9.60;99.90;;;;;;5063989;28;20037;-81
2023/12/24 05:17:57;;;;;;;6.75;2.17;;;9.50;99.90;;;;;;5065508;28;20028;-82
2023/12/24 05:20:23;;;;;;;5.50;2.15;;;9.60;99.90;;;;;;5060118;28;20037;-82
2023/12/24 05:22:48;;;;;;;6.72;2.63;;;9.50;99.90;;;;;;5062901;28;20051;-82
2023/12/24 05:25:14;;;;;;;8.68;2.88;;;9.60;99.90;;;;;;5062006;28;20071;-82
2023/12/24 05:27:40;;;;;;;7.15;2.88;;;9.50;99.90;;;;;;5061645;28;20229;-82
2023/12/24 05:30:08;;;;;;;6.63;3.05;;;9.60;99.90;;;;;;5058956;28;20041;-82
2023/12/24 05:32:34;;;;;;;8.65;2.85;;;9.60;99.90;;;;;;5060140;28;20048;-82
2023/12/24 05:35:00;;;;;;;7.95;2.80;;;9.60;99.90;;;;;;5060659;28;20040;-81
2023/12/24 05:37:25;;;;;;;8.75;2.95;;;9.60;99.90;;;;;;5056976;28;20056;-82
2023/12/24 05:39:51;;;;;;;10.90;3.00;;;9.60;99.90;;;;;;5058990;28;20040;-82
2023/12/24 05:42:16;;;;;;;9.27;3.00;;;9.60;99.90;;;;;;5058647;28;20094;-82
2023/12/24 05:44:42;;;;;;;13.25;3.45;;;9.70;99.90;;;;;;5060373;28;20043;-82
2023/12/24 05:47:08;;;;;;;8.48;3.10;;;9.70;99.90;;;;;;5060100;28;20115;-82
2023/12/24 05:49:38;;;;;;;7.20;2.78;;;9.80;99.90;;;;;;5060954;28;20041;-82
2023/12/24 05:52:03;;;;;;;9.77;3.40;;;9.60;99.90;;;;;;5061743;28;20037;-82
2023/12/24 05:54:30;;;;;;;17.38;4.47;;;9.70;99.90;;;;;;5062276;28;20036;-82
2023/12/24 05:56:55;;;;;;;12.25;3.20;;;9.70;99.90;;;;;;5062638;28;20037;-82
2023/12/24 05:59:22;;;;;;;10.10;3.50;;;9.70;99.90;;;;;;5061041;28;20381;-82
2023/12/24 06:01:48;;;;;;;12.30;3.60;;;9.80;99.90;;;;;;5061292;28;20041;-82
2023/12/24 06:04:13;;;;;;;14.38;4.18;;;9.80;99.90;;;;;;5061565;28;20119;-82
2023/12/24 06:06:41;;;;;;;20.63;4.00;;;9.80;99.90;;;;;;5061871;28;20040;-82
2023/12/24 06:09:06;;;;;;;14.40;3.88;;;9.80;99.90;;;;;;5060058;28;20048;-82
2023/12/24 06:11:32;;;;;;;20.05;4.05;;;9.80;99.90;;;;;;5062121;28;20040;-82
2023/12/24 06:13:58;;;;;;;19.05;3.85;;;9.90;99.90;;;;;;5057156;28;20068;-82
2023/12/24 06:16:23;;;;;;;14.65;3.88;;;9.80;99.90;;;;;;5059690;28;20036;-82
2023/12/24 06:18:49;;;;;;;13.63;3.92;;;9.80;99.90;;;;;;5062081;28;20048;-82
2023/12/24 06:21:15;;;;;;;17.10;4.07;;;9.90;99.90;;;;;;5061638;28;20124;-82
2023/12/24 06:23:40;;;;;;;14.90;3.80;;;9.90;99.90;;;;;;5061893;28;20108;-82
2023/12/24 06:26:06;;;;;;;14.40;4.07;;;9.90;99.90;;;;;;5060673;28;20112;-82
2023/12/24 06:28:32;;;;;;;16.35;3.80;;;9.90;99.90;;;;;;5060903;28;20056;-82
2023/12/24 06:30:59;;;;;;;14.60;3.78;;;9.90;99.90;;;;;;5059135;28;20071;-82
2023/12/24 06:33:25;;;;;;;14.32;3.20;;;10.00;99.90;;;;;;5060065;28;20048;-82
2023/12/24 06:35:50;;;;;;;13.30;3.20;;;9.90;99.90;;;;;;5060518;28;20041;-82
2023/12/24 06:38:16;;;;;;;19.10;4.68;;;9.90;99.90;;;;;;5059271;28;20033;-82
2023/12/24 06:40:42;;;;;;;16.75;3.30;;;10.00;99.90;;;;;;5059440;28;20072;-82
2023/12/24 06:43:08;;;;;;;16.67;3.45;;;9.90;99.90;;;;;;5059838;28;20567;-82
2023/12/24 06:45:34;;;;;;;12.40;3.30;;;9.90;99.90;;;;;;5060434;28;20051;-82
2023/12/24 06:48:02;;;;;;;18.85;3.70;;;9.90;99.90;;;;;;5060164;28;20044;-82
2023/12/24 06:50:28;;;;;;;17.58;3.47;;;9.90;99.90;;;;;;5093261;28;20060;-82
2023/12/24 06:52:54;;;;;;;14.85;3.63;;;9.90;99.90;;;;;;5061863;28;20052;-82
2023/12/24 06:55:19;;;;;;;14.60;3.60;;;10.00;99.90;;;;;;5060961;28;20076;-81
2023/12/24 06:57:45;;;;;;;15.25;3.30;;;10.00;99.90;;;;;;5060702;28;20049;-82
2023/12/24 07:00:11;;;;;;;16.05;3.75;;;10.00;99.90;;;;;;5060103;28;20523;-82
2023/12/24 07:02:37;;;;;;;12.93;3.08;;;10.00;99.90;;;;;;5059650;28;20060;-82
2023/12/24 07:05:03;;;;;;;13.32;3.22;;;10.00;99.90;;;;;;5061253;28;20380;-82
2023/12/24 07:07:29;;;;;;;11.32;3.00;;;10.00;99.90;;;;;;5060092;28;20104;-83
2023/12/24 07:09:54;;;;;;;13.00;3.40;;;10.10;99.90;;;;;;5059791;28;20078;-82
2023/12/24 07:12:20;;;;;;;12.25;3.47;;;10.10;99.90;;;;;;5058721;28;20079;-82
2023/12/24 07:14:46;;;;;;;14.77;4.13;;;10.10;99.90;;;;;;5056710;28;20029;-82
2023/12/24 07:17:11;;;;;;;17.33;3.60;;;10.10;99.90;;;;;;5057352;28;20045;-82
2023/12/24 07:19:37;;;;;;;16.02;3.67;;;10.10;99.90;;;;;;5060888;28;20438;-82
2023/12/24 07:22:03;;;;;;;13.70;3.88;;;10.20;99.90;;;;;;5056803;28;20048;-81
2023/12/24 07:24:29;;;;;;;19.80;3.63;;;10.20;99.90;;;;;;5058520;28;20044;-82
2023/12/24 07:26:55;;;;;;;12.98;2.88;;;10.20;99.90;;;;;;5056393;28;20041;-82
2023/12/24 07:29:21;;;;;;;18.17;3.80;;;10.20;99.90;;;;;;5060601;28;20071;-82
2023/12/24 07:31:47;;;;;;;16.83;3.33;;;10.20;99.90;;;;;;5060111;28;20408;-82
2023/12/24 07:34:13;;;;;;;17.52;3.50;;;10.20;99.90;;;;;;5060768;28;20033;-82
2023/12/24 07:36:38;;;;;;;15.90;3.05;;;10.20;99.90;;;;;;5061567;28;20044;-82
2023/12/24 07:39:04;;;;;;;18.08;3.78;;;10.20;99.90;;;;;;5060702;28;20033;-82
2023/12/24 07:41:31;;;;;;;11.60;3.00;;;10.30;99.90;;;;;;5060632;28;20052;-82
2023/12/24 07:43:56;;;;;;;12.40;3.17;;;10.30;99.90;;;;;;5058224;28;20037;-82
2023/12/24 07:46:22;;;;;;;14.88;3.30;;;10.30;99.90;;;;;;5058957;28;20052;-82
2023/12/24 07:48:48;;;;;;;15.40;3.40;;;10.30;99.90;;;;;;5060966;28;20075;-82
2023/12/24 07:51:13;;;;;;;14.80;3.50;;;10.50;99.90;;;;;;5058619;28;20093;-82
2023/12/24 07:53:39;;;;;;;14.43;3.80;;;10.30;99.90;;;;;;5059797;28;20148;-82
2023/12/24 07:56:06;;;;;;;17.88;3.90;;;10.50;99.90;;;;;;5054955;28;20091;-82
2023/12/24 07:58:31;;;;;;;13.50;3.05;;;10.30;99.90;;;;;;5052436;28;20037;-82
2023/12/24 08:00:57;;;;;;;14.73;4.03;;;10.30;99.90;;;;;;5057890;28;20040;-82
2023/12/24 08:03:23;;;;;;;12.38;3.33;;;10.30;99.90;;;;;;5059526;28;20041;-82
2023/12/24 08:05:48;;;;;;;19.58;3.65;;;10.30;99.90;;;;;;5055987;28;20057;-83
2023/12/24 08:08:14;;;;;;;15.35;3.47;;;10.40;99.90;;;;;;5065958;28;20048;-83
2023/12/24 08:10:40;;;;;;;12.93;3.35;;;10.30;99.90;;;;;;5067995;28;20063;-82
2023/12/24 08:13:05;;;;;;;14.70;3.20;;;10.30;99.90;;;;;;5096527;28;20040;-82
2023/12/24 08:15:31;;;;;;;15.95;3.28;;;10.40;99.90;;;;;;5069216;28;20035;-82
2023/12/24 08:17:56;;;;;;;13.73;3.33;;;10.30;99.90;;;;;;5069218;28;20041;-82
2023/12/24 08:20:22;;;;;;;18.33;4.03;;;10.30;99.90;;;;;;5069046;28;20037;-82
2023/12/24 08:22:48;;;;;;;15.65;3.30;;;10.30;99.90;;;;;;5065194;28;20037;-82
2023/12/24 08:25:14;;;;;;;14.27;3.65;;;10.30;99.90;;;;;;5057177;28;20040;-82
2023/12/24 08:27:40;;;;;;;21.83;3.97;;;10.40;99.90;;;;;;5062583;28;20072;-82
2023/12/24 08:30:06;;;;;;;15.05;3.22;;;10.40;99.90;;;;;;5064161;28;20373;-83
2023/12/24 08:32:31;;;;;;;20.27;3.80;;;10.40;99.90;;;;;;5062683;28;20035;-82
2023/12/24 08:34:57;;;;;;;18.75;3.80;;;10.40;99.90;;;;;;5065730;28;20089;-82
2023/12/24 08:37:23;;;;;;;19.23;4.15;;;10.50;99.90;;;;;;5062947;28;20048;-82
2023/12/24 08:39:48;;;;;;;13.25;3.85;;;10.50;99.90;;;;;;5062790;28;20028;-82
2023/12/24 08:42:14;;;;;;;14.02;3.50;;;10.50;99.90;;;;;;5064292;28;20037;-83
2023/12/24 08:44:39;;;;;;;14.55;3.80;;;10.50;99.90;;;;;;5063977;28;20045;-82
2023/12/24 08:47:05;;;;;;;14.05;3.47;;;10.50;99.90;;;;;;5062403;28;20467;-82
2023/12/24 08:49:31;;;;;;;18.55;3.70;;;10.50;99.90;;;;;;5063572;28;20037;-83
2023/12/24 08:51:56;;;;;;;15.48;3.63;;;10.60;99.90;;;;;;5063723;28;20040;-82
2023/12/24 08:54:24;;;;;;;18.40;3.78;;;10.60;99.90;;;;;;5063259;28;20087;-82
2023/12/24 08:56:50;;;;;;;13.70;4.03;;;10.60;99.90;;;;;;5059315;28;20033;-82
2023/12/24 08:59:15;;;;;;;18.13;4.05;;;10.70;99.90;;;;;;5063325;28;20612;-82
2023/12/24 09:01:41;;;;;;;13.10;3.08;;;10.60;99.90;;;;;;5056795;28;20097;-82
2023/12/24 09:04:07;;;;;;;19.88;3.30;;;10.70;99.90;;;;;;5061086;28;20038;-82
2023/12/24 09:06:33;;;;;;;14.73;3.00;;;10.70;99.90;;;;;;5095033;28;20036;-82
2023/12/24 09:08:58;;;;;;;12.65;2.60;;;10.70;99.90;;;;;;5062837;28;20174;-82
2023/12/24 09:11:24;;;;;;;14.48;3.20;;;10.70;99.90;;;;;;5062109;28;20045;-82
2023/12/24 09:13:49;;;;;;;10.70;3.28;;;10.80;99.90;;;;;;5061265;28;20639;-82
2023/12/24 09:16:15;;;;;;;16.45;3.17;;;10.80;99.90;;;;;;5061488;28;20068;-82
2023/12/24 09:18:41;;;;;;;15.27;3.10;;;10.80;99.90;;;;;;5060874;28;20047;-83
2023/12/24 09:21:06;;;;;;;16.00;3.40;;;10.70;99.90;;;;;;5059990;28;20117;-82
2023/12/24 09:23:32;;;;;;;14.75;2.78;;;10.80;99.90;;;;;;5059162;28;20509;-82
2023/12/24 09:25:57;;;;;;;17.70;2.90;;;10.70;99.90;;;;;;5059282;28;20045;-83
2023/12/24 09:28:23;;;;;;;19.80;3.25;;;10.80;99.90;;;;;;5060626;28;20033;-82
2023/12/24 09:30:49;;;;;;;13.70;3.30;;;10.80;99.90;;;;;;5061401;28;20063;-82
2023/12/24 09:33:14;;;;;;;12.18;2.70;;;10.90;99.90;;;;;;5056362;28;20041;-82
2023/12/24 09:35:42;;;;;;;11.68;2.80;;;10.90;99.90;;;;;;5059294;28;20393;-82
2023/12/24 09:38:08;;;;;;;14.82;2.90;;;10.80;99.90;;;;;;5053318;28;20049;-82
2023/12/24 09:40:33;;;;;;;19.40;3.13;;;10.80;99.90;;;;;;5048729;28;20155;-82
2023/12/24 09:43:00;;;;;;;12.45;2.78;;;10.80;99.90;;;;;;5043728;28;20083;-82
2023/12/24 09:45:26;;;;;;;13.35;2.83;;;10.90;99.90;;;;;;5041319;28;20048;-83
2023/12/24 09:47:51;;;;;;;17.38;3.42;;;10.90;99.90;;;;;;5054286;28;20037;-82
2023/12/24 09:50:17;;;;;;;18.67;3.60;;;10.80;99.90;;;;;;5056268;28;20139;-82
2023/12/24 09:52:45;;;;;;;15.38;3.05;;;11.00;99.90;;;;;;5049392;28;20040;-82
2023/12/24 09:55:10;;;;;;;15.35;3.63;;;10.90;99.90;;;;;;5049794;28;20041;-82
2023/12/24 09:57:38;;;;;;;11.68;2.67;;;11.00;99.90;;;;;;5046715;28;20036;-82
2023/12/24 10:00:08;;;;;;;14.80;3.60;;;10.90;99.90;;;;;;5056180;28;20060;-82
2023/12/24 10:02:33;;;;;;;18.48;3.15;;;10.90;99.90;;;;;;5055743;28;20037;-84
2023/12/24 10:05:00;;;;;;;9.45;2.67;;;10.90;99.90;;;;;;5054704;28;20044;-82
2023/12/24 10:07:38;;;;;;;13.18;2.85;;;10.90;99.90;;;;;;5056205;28;20037;-82
2023/12/24 10:10:04;;;;;;;17.48;3.75;;;11.00;99.90;;;;;;5056244;28;20031;-82
2023/12/24 10:12:30;;;;;;;14.50;3.33;;;11.00;99.90;;;;;;5055280;28;20082;-82
2023/12/24 10:14:58;;;;;;;13.75;3.55;;;11.00;99.90;;;;;;5054183;28;20029;-82
2023/12/24 10:17:31;;;;;;;19.08;3.05;;;11.00;99.90;;;;;;5052889;28;20075;-82
2023/12/24 10:19:57;;;;;;;11.70;2.53;;;11.00;99.90;;;;;;5055860;28;20057;-82
2023/12/24 10:22:24;;;;;;;14.68;2.72;;;11.00;99.90;;;;;;5057819;28;20033;-81
2023/12/24 10:24:58;;;;;;;13.60;2.33;;;11.00;99.90;;;;;;5058103;28;20653;-82
2023/12/24 10:27:23;;;;;;;17.13;2.42;;;11.00;99.90;;;;;;5056151;28;20048;-82
2023/12/24 10:29:49;;;;;;;13.77;3.15;;;11.00;99.90;;;;;;5053995;28;20330;-82
2023/12/24 10:32:22;;;;;;;17.52;3.33;;;11.00;99.90;;;;;;5052901;28;20373;-82
2023/12/24 10:34:58;;;;;;;20.05;3.97;;;11.10;99.90;;;;;;5052511;28;20029;-82
2023/12/24 10:37:29;;;;;;;12.38;2.45;;;11.10;99.90;;;;;;5054936;28;20072;-82
2023/12/24 10:40:05;;;;;;;12.77;3.22;;;11.10;99.90;;;;;;5057705;28;20059;-82
2023/12/24 10:42:31;;;;;;;11.27;2.50;;;11.10;99.90;;;;;;5053668;28;20048;-82
2023/12/24 10:44:56;;;;;;;13.25;3.03;;;11.10;99.90;;;;;;5059022;28;20029;-82
2023/12/24 10:47:22;;;;;;;13.18;2.60;;;11.20;99.90;;;;;;5059305;28;20071;-82
2023/12/24 10:49:47;;;;;;;13.43;3.13;;;11.20;99.90;;;;;;5057659;28;20041;-82
2023/12/24 10:52:13;;;;;;;14.23;2.80;;;11.20;99.90;;;;;;5047153;28;20051;-82
2023/12/24 10:54:40;;;;;;;14.02;2.50;;;11.30;99.90;;;;;;5046147;28;20049;-82
2023/12/24 10:57:23;;;;;;;16.88;2.95;;;11.30;99.90;;;;;;5058479;28;20041;-82
2023/12/24 11:00:12;;;;;;;14.80;2.70;;;11.40;99.90;;;;;;5059027;28;20029;-82
2023/12/24 11:02:47;;;;;;;7.45;2.55;;;11.40;99.90;;;;;;5058599;28;20041;-82
2023/12/24 11:05:46;;;;;;;10.50;2.33;;;11.40;99.90;;;;;;5063005;28;20037;-82
2023/12/24 11:08:21;;;;;;;12.07;2.40;;;11.50;99.90;;;;;;5063055;28;20052;-82
2023/12/24 11:11:07;;;;;;;9.93;1.98;;;11.50;99.90;;;;;;5064169;28;20033;-82
2023/12/24 11:13:33;;;;;;;10.93;2.53;;;11.50;99.90;;;;;;5061898;28;20044;-82
2023/12/24 11:16:04;;;;;;;11.48;2.55;;;11.60;99.90;;;;;;5062712;28;20556;-81
2023/12/24 11:18:47;;;;;;;11.95;2.22;;;11.60;99.90;;;;;;5063466;28;20048;-81
2023/12/24 11:21:19;;;;;;;10.75;2.35;;;11.60;99.90;;;;;;5062100;28;20049;-82
2023/12/24 11:24:14;;;;;;;16.20;3.17;;;11.50;99.90;;;;;;5062037;28;20037;-82
2023/12/24 11:26:52;;;;;;;13.73;2.70;;;11.50;99.90;;;;;;5062618;28;20041;-82
2023/12/24 11:29:39;;;;;;;15.80;2.92;;;11.50;99.90;;;;;;5060926;28;20037;-82
2023/12/24 11:32:24;;;;;;;11.00;2.30;;;11.40;99.90;;;;;;5060230;28;20048;-82
2023/12/24 11:34:50;;;;;;;;;;;11.50;99.90;;;;;;5062761;28;20044;-82
2023/12/24 11:37:26;;;;;;;15.55;2.70;;;11.50;99.90;;;;;;5062883;28;20352;-82
2023/12/24 11:40:18;;;;;;;15.00;2.65;;;11.40;99.90;;;;;;5055999;28;20056;-82
2023/12/24 11:42:45;;;;;;;10.77;3.20;;;11.40;99.90;;;;;;5059274;28;20045;-82
2023/12/24 11:45:29;;;;;;;16.70;2.78;;;11.40;99.90;;;;;;5062536;28;20399;-82
2023/12/24 11:47:55;;;;;;;17.95;3.53;;;11.50;99.90;;;;;;5058318;28;20053;-82
2023/12/24 11:50:21;;;;;;;14.13;3.10;;;11.50;99.90;;;;;;5049165;28;20060;-82
2023/12/24 11:52:48;;;;;;;11.18;3.03;;;11.50;99.90;;;;;;5058424;28;20036;-82
2023/12/24 11:55:18;;;;;;;10.95;3.17;;;11.50;99.90;;;;;;5066123;28;20056;-82
2023/12/24 11:57:45;;;;;;;12.38;2.75;;;11.50;99.90;;;;;;5063064;28;20036;-82
2023/12/24 12:00:23;;;;;;;12.50;3.17;;;11.50;99.90;;;;;;5064112;28;20140;-82
2023/12/24 12:02:57;;;;;;;14.90;2.90;;;11.50;99.90;;;;;;5063290;28;20086;-81
2023/12/24 12:05:24;;;;;;;11.68;2.70;;;11.50;99.90;;;;;;5060412;28;20036;-82
2023/12/24 12:07:50;;;;;;;7.50;2.25;;;11.50;99.90;;;;;;5062455;28;20033;-82
2023/12/24 12:10:17;;;;;;;13.73;2.40;;;11.60;99.90;;;;;;5060729;28;20114;-82
2023/12/24 12:12:43;;;;;;;12.93;2.30;;;11.60;99.90;;;;;;5058498;28;20047;-82
2023/12/24 12:15:10;;;;;;;11.98;3.10;;;11.60;99.90;;;;;;5043017;28;20120;-82
2023/12/24 12:17:36;;;;;;;12.02;2.15;;;11.60;99.90;;;;;;5045438;28;20045;-82
2023/12/24 12:20:02;;;;;;;9.27;2.20;;;11.60;99.90;;;;;;5048982;28;20036;-82
2023/12/24 12:22:28;;;;;;;12.55;2.88;;;11.60;99.90;;;;;;5051608;28;20514;-82
2023/12/24 12:24:54;;;;;;;9.07;2.92;;;11.60;99.90;;;;;;5054030;28;20067;-82
2023/12/24 12:27:19;;;;;;;10.43;2.63;;;11.60;99.90;;;;;;5061556;28;20696;-82
2023/12/24 12:29:45;;;;;;;10.57;2.55;;;11.60;99.90;;;;;;5060854;28;20033;-82
2023/12/24 12:32:11;;;;;;;7.80;2.22;;;11.70;99.90;;;;;;5051774;28;20040;-83
2023/12/24 12:34:38;;;;;;;10.40;2.10;;;11.80;99.90;;;;;;5046322;28;20030;-82
2023/12/24 12:37:04;;;;;;;11.10;2.20;;;11.70;99.90;;;;;;5048451;28;20034;-82
2023/12/24 12:39:30;;;;;;;11.23;2.20;;;11.80;99.90;;;;;;5050502;28;20121;-82
2023/12/24 12:41:57;;;;;;;13.15;2.72;;;11.80;99.90;;;;;;5063271;28;20049;-81
2023/12/24 12:44:23;;;;;;;12.77;2.40;;;11.80;99.90;;;;;;5060618;28;20045;-82